KWRB

Robins AFB Airport

Warner Robins, Georgia, USA
TAF KWRB 251300Z 2513/2619 VRB06KT 9999 OVC006 QNH3010INS BECMG 2513/2514 14006KT 9999 OVC008 QNH3009INS BECMG 2514/2515 14006KT 9999 BKN015 QNH3008INS BECMG 2516/2517 13006KT 9999 BKN030 QNH3006INS BECMG 2609/2610 15006KT 4800 BR BKN008 BKN030 QNH3008INS BECMG 2614/2615 VRB06KT 9999 NSW BKN030 QNH3004INS TX31/2517Z TN23/2611Z
Issued Valid From Valid To
Sep-25 @ 13:00 UTC
(2 hours ago)
Sep-25 @ 13:00 UTC
(2 hours ago)
Sep-26 @ 19:00 UTC
(-1 days ago)
Sep-25 @ 13:00 to Sep-26 @ 19:00
TAF KWRB 251300Z 2513/2619 VRB06KT 9999 OVC006 QNH3010INS
Wind Visibility Clouds Readings
Variable at 6 knots Greater than 6 miles
  • Overcast at 600' AGL
Altimeter 30.09" Hg
Pressure 1019 hPa
Expired Click to View Sep-25 @ 13:00 to Sep-25 @ 14:00
BECMG 2513/2514 14006KT 9999 OVC008 QNH3009INS
Wind Visibility Clouds Readings
140° at 6 knots Greater than 6 miles
  • Overcast at 800' AGL
Altimeter 30.09" Hg
Pressure 1019 hPa
Becoming Sep-25 @ 14:00 to Sep-25 @ 16:00
BECMG 2514/2515 14006KT 9999 BKN015 QNH3008INS
Wind Visibility Clouds Readings
140° at 6 knots Greater than 6 miles
  • Broken at 1,500' AGL
Altimeter 30.09" Hg
Pressure 1019 hPa
Becoming Sep-25 @ 16:00 to Sep-26 @ 09:00
BECMG 2516/2517 13006KT 9999 BKN030 QNH3006INS
Wind Visibility Clouds Readings
130° at 6 knots Greater than 6 miles
  • Broken at 3,000' AGL
Altimeter 30.06" Hg
Pressure 1018 hPa
Becoming Sep-26 @ 09:00 to Sep-26 @ 14:00
BECMG 2609/2610 15006KT 4800 BR BKN008 BKN030 QNH3008INS
Wind Visibility Clouds Conditions Readings
150° at 6 knots 3.0 miles
  • Broken at 800' AGL
  • Broken at 3,000' AGL
  • Mist
Altimeter 30.09" Hg
Pressure 1019 hPa
Becoming Sep-26 @ 14:00 to Sep-26 @ 19:00
BECMG 2614/2615 VRB06KT 9999 NSW BKN030 QNH3004INS TX31/2517Z TN23/2611Z
Wind Visibility Clouds Conditions Readings
Variable at 6 knots Greater than 6 miles
  • Broken at 3,000' AGL
Altimeter 30.03" Hg
Pressure 1017 hPa
TAF KWRB 251300Z 2513/2619 VRB06KT 9999 OVC006 QNH3010INS BECMG 2513/2514 14006KT 9999 OVC008 QNH3009INS BECMG 2514/2515 14006KT 9999 BKN015 QNH3008INS BECMG 2516/2517 13006KT 9999 BKN030 QNH3006INS BECMG 2609/2610 15006KT 4800 BR BKN008 BKN030 QNH3008INS BECMG 2614/2615 VRB06KT 9999 NSW BKN030 QNH3004INS TX31/2517Z TN23/2611Z
Issued Sep-25 @ 13:00 UTC
(2 hours ago)
Valid From Sep-25 @ 13:00 UTC
(2 hours ago)
Valid To Sep-26 @ 19:00 UTC
(-1 days ago)
Sep-25 @ 13:00 - Sep-26 @ 19:00
Wind Visibility
Variable at 6 knots Greater than 6 miles
Clouds
  • Overcast at 600' AGL
Sep-25 @ 13:00 - Sep-25 @ 14:00
Wind Visibility
140° at 6 knots Greater than 6 miles
Clouds
  • Overcast at 800' AGL
Becoming Sep-25 @ 14:00 - Sep-25 @ 16:00
Wind Visibility
140° at 6 knots Greater than 6 miles
Clouds
  • Broken at 1,500' AGL
Becoming Sep-25 @ 16:00 - Sep-26 @ 09:00
Wind Visibility
130° at 6 knots Greater than 6 miles
Clouds
  • Broken at 3,000' AGL
Becoming Sep-26 @ 09:00 - Sep-26 @ 14:00
Wind Visibility
150° at 6 knots 3.0 miles
Clouds
  • Broken at 800' AGL
  • Broken at 3,000' AGL
Conditions
  • Mist
Becoming Sep-26 @ 14:00 - Sep-26 @ 19:00
Wind Visibility
Variable at 6 knots Greater than 6 miles
Clouds
  • Broken at 3,000' AGL
Conditions